Time;durP1;ratioP1;P1;durP2;ratioP2;P2;SDS_P1;SDS_P2;PMS_P1;PMS_P2;Temp;Humidity;BMP_temperature;BMP_pressure;BME280_temperature;BME280_humidity;BME280_pressure;Samples;Min_cycle;Max_cycle;Signal;HPM_P1;HPM_P2
2021/08/03 00:00:54;;;;;;;4.80;3.40;;;23.80;70.20;;;;;;5034528;28;20419;-60
2021/08/03 00:03:35;;;;;;;6.45;3.60;;;23.80;70.50;;;;;;5035042;28;20112;-60
2021/08/03 00:06:14;;;;;;;2.90;2.70;;;23.90;70.40;;;;;;5033947;28;20025;-60
2021/08/03 00:08:48;;;;;;;4.90;2.80;;;23.80;70.30;;;;;;5033797;28;20445;-60
2021/08/03 00:11:15;;;;;;;4.90;3.28;;;23.80;69.90;;;;;;5033910;28;20549;-60
2021/08/03 00:13:41;;;;;;;4.70;3.20;;;23.80;69.70;;;;;;5030170;28;20446;-60
2021/08/03 00:16:10;;;;;;;4.93;2.75;;;23.90;69.70;;;;;;5034418;28;20083;-60
2021/08/03 00:18:37;;;;;;;4.28;2.63;;;23.90;69.60;;;;;;5034389;28;20025;-60
2021/08/03 00:21:03;;;;;;;3.97;3.05;;;23.80;69.50;;;;;;5034546;28;20380;-60
2021/08/03 00:23:29;;;;;;;3.38;2.80;;;23.80;69.00;;;;;;5034150;28;20042;-60
2021/08/03 00:25:55;;;;;;;3.58;2.90;;;23.80;69.10;;;;;;5034381;28;20021;-60
2021/08/03 00:28:22;;;;;;;2.88;2.53;;;23.80;69.10;;;;;;5033014;28;20396;-59
2021/08/03 00:30:48;;;;;;;2.80;2.60;;;23.80;69.10;;;;;;5033654;28;20100;-58
2021/08/03 00:33:15;;;;;;;2.80;2.60;;;23.80;68.80;;;;;;5033790;28;20037;-58
2021/08/03 00:35:41;;;;;;;2.80;2.50;;;23.80;68.40;;;;;;5033393;28;20025;-59
2021/08/03 00:38:07;;;;;;;2.53;2.33;;;23.70;68.20;;;;;;5033796;28;20049;-59
2021/08/03 00:40:36;;;;;;;3.13;2.83;;;23.70;68.10;;;;;;5033878;28;20428;-57
2021/08/03 00:43:02;;;;;;;3.35;2.40;;;23.70;68.10;;;;;;5032259;28;20033;-58
2021/08/03 00:45:28;;;;;;;2.50;2.30;;;23.70;68.10;;;;;;5033545;28;20072;-59
2021/08/03 00:47:54;;;;;;;3.65;2.30;;;23.60;68.00;;;;;;5033249;28;20528;-58
2021/08/03 00:50:20;;;;;;;2.17;2.03;;;23.50;67.80;;;;;;5033998;28;20029;-59
2021/08/03 00:52:46;;;;;;;2.00;1.90;;;23.50;68.00;;;;;;5033758;28;20029;-58
2021/08/03 00:55:12;;;;;;;3.35;2.50;;;23.50;68.20;;;;;;5033842;28;20100;-58
2021/08/03 00:57:39;;;;;;;2.60;2.40;;;23.40;67.90;;;;;;5032874;28;20113;-59
2021/08/03 01:00:07;;;;;;;2.70;2.47;;;23.40;68.00;;;;;;5032054;28;20029;-58
2021/08/03 01:02:33;;;;;;;2.40;2.20;;;23.30;67.90;;;;;;5029852;28;20025;-58
2021/08/03 01:04:58;;;;;;;2.30;2.10;;;23.30;68.30;;;;;;5033506;28;20032;-58
2021/08/03 01:07:39;;;;;;;3.05;2.17;;;23.30;68.10;;;;;;5033557;28;20083;-57
2021/08/03 01:10:21;;;;;;;3.78;2.08;;;23.30;68.50;;;;;;5033514;28;20021;-58
2021/08/03 01:12:56;;;;;;;2.38;2.28;;;23.20;68.60;;;;;;5022035;28;20060;-57
2021/08/03 01:15:29;;;;;;;2.33;2.22;;;23.20;69.00;;;;;;5032991;28;20080;-58
2021/08/03 01:18:15;;;;;;;3.25;2.05;;;23.10;68.80;;;;;;5033561;28;20034;-58
2021/08/03 01:21:12;;;;;;;4.15;2.08;;;23.10;69.00;;;;;;5025555;28;20026;-59
2021/08/03 01:24:04;;;;;;;1.85;1.75;;;23.10;68.50;;;;;;5033291;28;20061;-59
2021/08/03 01:27:06;;;;;;;4.28;1.90;;;23.10;69.40;;;;;;5033717;28;20023;-59
2021/08/03 01:29:33;;;;;;;2.03;1.92;;;23.10;68.50;;;;;;5032853;28;20037;-58
2021/08/03 01:32:07;;;;;;;2.13;1.85;;;23.00;68.70;;;;;;5030128;28;20044;-58
2021/08/03 01:34:39;;;;;;;3.10;1.83;;;23.00;68.20;;;;;;5015991;28;20026;-58
2021/08/03 01:37:05;;;;;;;1.75;1.65;;;23.00;68.30;;;;;;5033340;28;20044;-59
2021/08/03 01:39:36;;;;;;;2.08;1.88;;;23.00;68.40;;;;;;5033297;28;20040;-59
2021/08/03 01:42:05;;;;;;;1.90;1.67;;;22.90;68.40;;;;;;5033354;28;20037;-59
2021/08/03 01:44:34;;;;;;;1.92;1.80;;;22.90;68.70;;;;;;5031733;28;20032;-59
2021/08/03 01:47:02;;;;;;;4.40;2.10;;;22.80;69.10;;;;;;5032596;28;20385;-59
2021/08/03 01:49:28;;;;;;;2.22;2.03;;;22.80;69.60;;;;;;5033330;28;20040;-59
2021/08/03 01:51:55;;;;;;;2.25;2.13;;;22.80;69.20;;;;;;5032747;28;20030;-59
2021/08/03 01:54:23;;;;;;;2.05;1.90;;;22.70;69.40;;;;;;5033212;28;20036;-59
2021/08/03 01:56:50;;;;;;;3.10;1.80;;;22.70;69.40;;;;;;5033205;28;20068;-59
2021/08/03 01:59:18;;;;;;;1.70;1.60;;;22.70;69.30;;;;;;5032371;28;20021;-59
2021/08/03 02:01:44;;;;;;;2.15;2.00;;;22.70;69.20;;;;;;5032983;28;20055;-59
2021/08/03 02:04:11;;;;;;;2.60;1.90;;;22.70;68.80;;;;;;5032570;28;20030;-59
2021/08/03 02:06:38;;;;;;;2.15;2.00;;;22.60;68.60;;;;;;5033336;28;20021;-58
2021/08/03 02:09:07;;;;;;;2.75;2.08;;;22.60;68.80;;;;;;5032596;28;20037;-59
2021/08/03 02:11:35;;;;;;;3.25;1.83;;;22.60;69.30;;;;;;5033259;28;20436;-59
2021/08/03 02:14:01;;;;;;;2.10;1.90;;;22.60;68.90;;;;;;5031358;28;20030;-59
2021/08/03 02:16:27;;;;;;;3.92;1.95;;;22.60;69.20;;;;;;5032969;28;20045;-59
2021/08/03 02:18:53;;;;;;;2.22;2.03;;;22.60;69.30;;;;;;5026698;28;20029;-59
2021/08/03 02:21:21;;;;;;;2.17;1.98;;;22.50;69.40;;;;;;5013228;28;20041;-59
2021/08/03 02:23:47;;;;;;;2.53;2.20;;;22.50;69.60;;;;;;5013051;28;20073;-59
2021/08/03 02:26:13;;;;;;;2.40;2.20;;;22.50;69.60;;;;;;5028687;28;20033;-59
2021/08/03 02:28:39;;;;;;;3.13;2.15;;;22.50;69.40;;;;;;5032269;28;20033;-59
2021/08/03 02:31:18;;;;;;;2.75;2.10;;;22.50;69.40;;;;;;5034043;28;20147;-59
2021/08/03 02:33:59;;;;;;;2.00;1.90;;;22.50;69.50;;;;;;5034016;28;20021;-59
2021/08/03 02:36:29;;;;;;;2.30;2.10;;;22.40;69.40;;;;;;5033774;28;20079;-59
2021/08/03 02:39:02;;;;;;;2.30;2.10;;;22.40;69.50;;;;;;5035824;28;20033;-59
2021/08/03 02:41:30;;;;;;;2.38;2.17;;;22.40;69.80;;;;;;5035610;28;20152;-59
2021/08/03 02:43:56;;;;;;;2.08;1.95;;;22.40;70.20;;;;;;5035197;28;20036;-59
2021/08/03 02:46:24;;;;;;;2.22;2.10;;;22.40;70.10;;;;;;5036087;28;20024;-59
2021/08/03 02:49:01;;;;;;;1.88;1.77;;;22.40;70.10;;;;;;5036291;28;20040;-58
2021/08/03 02:51:31;;;;;;;1.98;1.80;;;22.40;69.90;;;;;;5035002;28;20037;-59
2021/08/03 02:54:01;;;;;;;2.25;2.05;;;22.40;69.70;;;;;;5036469;28;20021;-59
2021/08/03 02:56:28;;;;;;;2.45;2.00;;;22.40;69.90;;;;;;5035964;28;20515;-58
2021/08/03 02:59:08;;;;;;;2.28;2.17;;;22.40;69.80;;;;;;5028383;28;20484;-59
2021/08/03 03:01:38;;;;;;;2.08;1.88;;;22.40;69.70;;;;;;5029737;28;20030;-59
2021/08/03 03:04:14;;;;;;;4.32;2.13;;;22.40;69.70;;;;;;5024691;28;20062;-59
2021/08/03 03:06:43;;;;;;;2.90;2.17;;;22.40;69.90;;;;;;5034419;28;20029;-59
2021/08/03 03:09:11;;;;;;;2.45;2.25;;;22.40;69.80;;;;;;5034743;28;20061;-59
2021/08/03 03:11:38;;;;;;;2.38;2.03;;;22.40;70.40;;;;;;5034480;28;20017;-59
2021/08/03 03:14:06;;;;;;;3.22;2.28;;;22.30;70.70;;;;;;5034890;28;20108;-58
2021/08/03 03:16:36;;;;;;;2.05;1.90;;;22.30;71.00;;;;;;5035924;28;20051;-59
2021/08/03 03:19:05;;;;;;;2.17;2.05;;;22.30;70.70;;;;;;5035688;28;20072;-59
2021/08/03 03:21:33;;;;;;;1.95;1.85;;;22.30;71.00;;;;;;5034762;28;20028;-59
2021/08/03 03:23:59;;;;;;;2.38;2.17;;;22.30;70.80;;;;;;5034919;28;20053;-59
2021/08/03 03:26:29;;;;;;;2.75;2.40;;;22.20;71.00;;;;;;5035545;28;20104;-58
2021/08/03 03:28:56;;;;;;;2.20;2.00;;;22.20;71.00;;;;;;5034325;28;20069;-59
2021/08/03 03:31:27;;;;;;;2.05;1.95;;;22.20;71.10;;;;;;5035169;28;20111;-59
2021/08/03 03:33:54;;;;;;;2.30;2.08;;;22.20;71.30;;;;;;5034166;28;20048;-59
2021/08/03 03:36:27;;;;;;;2.55;2.03;;;22.20;71.50;;;;;;5033543;28;20026;-59
2021/08/03 03:38:54;;;;;;;2.60;2.00;;;22.10;71.30;;;;;;5032722;28;20454;-59
2021/08/03 03:41:23;;;;;;;2.58;2.38;;;22.20;70.90;;;;;;5033712;28;20036;-58
2021/08/03 03:43:48;;;;;;;3.05;2.08;;;22.20;71.30;;;;;;5032695;28;20025;-58
2021/08/03 03:46:16;;;;;;;2.17;2.08;;;22.20;71.30;;;;;;5031987;28;20017;-59
2021/08/03 03:48:52;;;;;;;3.17;2.33;;;22.20;71.30;;;;;;5033272;28;20029;-59
2021/08/03 03:51:21;;;;;;;2.22;2.13;;;22.20;70.90;;;;;;5033913;28;20021;-59
2021/08/03 03:53:50;;;;;;;2.40;2.20;;;22.20;71.10;;;;;;5034362;28;20127;-59
2021/08/03 03:56:17;;;;;;;2.35;2.20;;;22.20;71.00;;;;;;5034847;28;20097;-59
2021/08/03 03:58:50;;;;;;;2.45;2.25;;;22.30;70.90;;;;;;5034057;28;20036;-58
2021/08/03 04:01:22;;;;;;;3.08;1.83;;;22.30;71.00;;;;;;5032857;28;20021;-59
2021/08/03 04:03:51;;;;;;;3.67;2.30;;;22.30;71.00;;;;;;5031151;28;20022;-59
2021/08/03 04:06:17;;;;;;;2.15;2.05;;;22.30;71.00;;;;;;5033479;28;20021;-59
2021/08/03 04:08:43;;;;;;;3.03;2.03;;;22.30;70.90;;;;;;5033114;28;20040;-59
2021/08/03 04:11:13;;;;;;;2.40;2.20;;;22.30;70.80;;;;;;5034471;28;20501;-59
2021/08/03 04:13:41;;;;;;;2.15;2.00;;;22.30;70.90;;;;;;5023496;28;20039;-58
2021/08/03 04:16:07;;;;;;;2.53;2.22;;;22.30;70.80;;;;;;5034437;28;20366;-59
2021/08/03 04:18:32;;;;;;;2.30;2.10;;;22.30;70.80;;;;;;5040519;28;20023;-59
2021/08/03 04:20:58;;;;;;;2.90;2.20;;;22.30;71.60;;;;;;5035198;28;20052;-59
2021/08/03 04:23:23;;;;;;;2.95;2.17;;;22.30;70.80;;;;;;5028032;28;20107;-59
2021/08/03 04:25:49;;;;;;;3.22;2.17;;;22.30;70.90;;;;;;5033606;28;20033;-59
2021/08/03 04:28:15;;;;;;;2.40;2.20;;;22.30;71.20;;;;;;5033308;28;20028;-58
2021/08/03 04:30:40;;;;;;;2.88;2.42;;;22.40;70.50;;;;;;5033172;28;20063;-59
2021/08/03 04:33:06;;;;;;;2.63;2.42;;;22.40;70.90;;;;;;5033282;28;20029;-59
2021/08/03 04:35:32;;;;;;;2.17;2.05;;;22.50;70.80;;;;;;5033967;28;20377;-59
2021/08/03 04:37:58;;;;;;;2.65;2.40;;;22.60;71.00;;;;;;5032694;28;20033;-59
2021/08/03 04:40:23;;;;;;;3.28;2.40;;;22.80;71.00;;;;;;5032952;28;20025;-59
2021/08/03 04:42:50;;;;;;;2.20;2.10;;;23.00;70.40;;;;;;5032785;28;20036;-58
2021/08/03 04:45:16;;;;;;;2.42;2.00;;;23.20;70.00;;;;;;5033870;28;20474;-59
2021/08/03 04:47:47;;;;;;;2.55;1.88;;;23.70;69.30;;;;;;5033519;28;20100;-59
2021/08/03 04:50:15;;;;;;;1.83;1.73;;;24.40;69.40;;;;;;5023613;28;20111;-59
2021/08/03 04:52:41;;;;;;;3.10;2.10;;;25.30;67.50;;;;;;5026441;28;20359;-59
2021/08/03 04:55:07;;;;;;;2.20;2.00;;;26.00;66.10;;;;;;5033214;28;20043;-58
2021/08/03 04:57:34;;;;;;;2.00;1.77;;;26.80;64.70;;;;;;5028409;28;20033;-59
2021/08/03 04:59:59;;;;;;;1.80;1.70;;;27.20;62.70;;;;;;5027072;28;20109;-59
2021/08/03 05:02:25;;;;;;;2.20;2.00;;;27.30;61.80;;;;;;5030464;28;20473;-59
2021/08/03 05:04:51;;;;;;;2.15;1.95;;;27.10;61.20;;;;;;5031178;28;20063;-59
2021/08/03 05:07:17;;;;;;;2.75;2.08;;;27.00;62.40;;;;;;5027741;28;20017;-59
2021/08/03 05:09:42;;;;;;;2.00;1.80;;;27.00;61.20;;;;;;5025469;28;20057;-59
2021/08/03 05:12:08;;;;;;;1.73;1.60;;;27.30;61.50;;;;;;5030383;28;20481;-59
2021/08/03 05:14:34;;;;;;;2.20;2.05;;;27.90;60.60;;;;;;5030439;28;20025;-59
2021/08/03 05:17:00;;;;;;;2.00;1.88;;;28.40;59.20;;;;;;5031217;28;20079;-59
2021/08/03 05:19:25;;;;;;;1.52;1.38;;;28.50;58.50;;;;;;5025515;28;20025;-59
2021/08/03 05:21:51;;;;;;;2.00;1.90;;;28.30;58.30;;;;;;5028029;28;20017;-59
2021/08/03 05:24:16;;;;;;;2.55;2.05;;;28.20;58.20;;;;;;5029016;28;20037;-58
2021/08/03 05:26:42;;;;;;;2.20;2.00;;;28.00;57.80;;;;;;5024859;28;20096;-59
2021/08/03 05:29:08;;;;;;;1.88;1.77;;;27.70;58.00;;;;;;5022988;28;20073;-58
2021/08/03 05:31:34;;;;;;;2.38;2.10;;;27.30;58.10;;;;;;5023246;28;20091;-59
2021/08/03 05:34:01;;;;;;;2.35;2.03;;;27.00;58.80;;;;;;5030703;28;20052;-59
2021/08/03 05:36:27;;;;;;;2.67;2.20;;;26.60;58.90;;;;;;5040436;28;20037;-58
2021/08/03 05:38:52;;;;;;;4.93;2.20;;;26.30;59.60;;;;;;5033678;28;20034;-58
2021/08/03 05:41:18;;;;;;;2.30;2.10;;;26.20;59.80;;;;;;5036401;28;20096;-58
2021/08/03 05:43:44;;;;;;;2.22;2.03;;;26.00;60.00;;;;;;5026984;28;20021;-58
2021/08/03 05:46:09;;;;;;;2.67;2.10;;;25.90;60.30;;;;;;5025625;28;20392;-58
2021/08/03 05:48:35;;;;;;;3.60;2.38;;;25.80;60.60;;;;;;5033607;28;20084;-60
2021/08/03 05:51:00;;;;;;;2.50;2.30;;;25.70;60.70;;;;;;5032028;28;20022;-57
2021/08/03 05:53:26;;;;;;;2.38;2.10;;;25.70;60.80;;;;;;5030838;28;20048;-58
2021/08/03 05:55:52;;;;;;;2.92;2.50;;;25.70;61.30;;;;;;5028586;28;20033;-58
2021/08/03 05:58:18;;;;;;;2.30;2.10;;;25.60;61.40;;;;;;5028032;28;20033;-60
2021/08/03 06:00:44;;;;;;;4.03;2.10;;;25.60;61.50;;;;;;5029498;28;20404;-60
2021/08/03 06:03:10;;;;;;;2.30;2.10;;;25.50;61.50;;;;;;5033124;28;20026;-60
2021/08/03 06:05:37;;;;;;;3.47;2.22;;;25.60;61.80;;;;;;5026465;28;20053;-58
2021/08/03 06:08:07;;;;;;;3.08;2.35;;;25.60;61.80;;;;;;5035273;28;20030;-58
2021/08/03 06:10:34;;;;;;;3.15;2.30;;;25.70;61.70;;;;;;5029133;28;20037;-58
2021/08/03 06:13:02;;;;;;;2.15;1.98;;;25.80;61.50;;;;;;5032754;28;20045;-58
2021/08/03 06:15:31;;;;;;;2.30;2.10;;;25.90;61.40;;;;;;5031398;28;20030;-57
2021/08/03 06:18:08;;;;;;;2.28;2.08;;;25.90;61.30;;;;;;5033929;28;20045;-58
2021/08/03 06:20:34;;;;;;;2.40;2.08;;;26.00;61.20;;;;;;5030813;28;20029;-58
2021/08/03 06:23:01;;;;;;;3.28;2.22;;;26.10;61.10;;;;;;5040395;28;20124;-58
2021/08/03 06:25:27;;;;;;;3.40;2.30;;;26.20;61.10;;;;;;5034792;28;20493;-58
2021/08/03 06:27:53;;;;;;;2.47;2.28;;;26.30;60.80;;;;;;5036366;28;20044;-58
2021/08/03 06:30:21;;;;;;;2.70;2.40;;;26.30;60.30;;;;;;5029299;28;20033;-58
2021/08/03 06:32:48;;;;;;;2.83;2.17;;;26.30;60.00;;;;;;5027036;28;20064;-58
2021/08/03 06:35:15;;;;;;;2.40;2.20;;;26.30;60.10;;;;;;5020434;28;20025;-58
2021/08/03 06:37:41;;;;;;;3.00;2.33;;;26.20;60.00;;;;;;5025703;28;20912;-58
2021/08/03 06:40:09;;;;;;;2.92;2.20;;;26.20;60.10;;;;;;5027682;28;20076;-59
2021/08/03 06:42:56;;;;;;;2.20;2.10;;;26.10;59.90;;;;;;5032712;28;20028;-59
2021/08/03 06:45:29;;;;;;;2.92;2.63;;;26.10;60.10;;;;;;5031270;28;20099;-59
2021/08/03 06:47:55;;;;;;;3.72;2.42;;;26.00;60.10;;;;;;5026688;28;20029;-59
2021/08/03 06:50:28;;;;;;;3.80;2.85;;;25.90;60.40;;;;;;5026147;28;20048;-59
2021/08/03 06:52:55;;;;;;;4.57;2.55;;;25.80;60.10;;;;;;5030667;28;20038;-59
2021/08/03 06:55:30;;;;;;;2.75;2.53;;;25.70;59.90;;;;;;5027527;28;20029;-59
2021/08/03 06:58:00;;;;;;;2.67;2.40;;;25.70;60.30;;;;;;5025750;28;20045;-59
2021/08/03 07:00:30;;;;;;;3.83;2.67;;;25.60;60.20;;;;;;5022184;28;20133;-58
2021/08/03 07:02:57;;;;;;;3.08;2.42;;;25.50;60.10;;;;;;5020817;28;20486;-58
2021/08/03 07:05:27;;;;;;;3.30;2.38;;;25.40;60.70;;;;;;5019867;28;20033;-58
2021/08/03 07:07:58;;;;;;;2.40;2.20;;;25.40;61.10;;;;;;5018730;28;20621;-59
2021/08/03 07:10:24;;;;;;;2.83;2.60;;;25.40;61.10;;;;;;5014866;28;20037;-57
2021/08/03 07:12:53;;;;;;;2.90;2.60;;;25.30;61.00;;;;;;5018411;28;20132;-57
2021/08/03 07:15:20;;;;;;;2.80;2.60;;;25.30;61.10;;;;;;5021653;28;20057;-60
2021/08/03 07:17:47;;;;;;;2.83;2.17;;;25.30;61.40;;;;;;5022621;28;20045;-60
2021/08/03 07:20:15;;;;;;;2.78;2.47;;;25.40;61.50;;;;;;5019100;28;20033;-58
2021/08/03 07:22:42;;;;;;;2.45;2.25;;;25.40;61.10;;;;;;5015761;28;20034;-57
2021/08/03 07:25:09;;;;;;;2.58;2.38;;;25.50;61.00;;;;;;5020102;28;20556;-58
2021/08/03 07:27:36;;;;;;;2.28;2.08;;;25.50;60.80;;;;;;5013173;28;20049;-59
2021/08/03 07:30:03;;;;;;;2.85;2.53;;;25.50;61.00;;;;;;5016350;28;20048;-58
2021/08/03 07:32:29;;;;;;;3.10;2.50;;;25.50;60.90;;;;;;5021589;28;20038;-58
2021/08/03 07:34:55;;;;;;;2.63;2.42;;;25.50;61.00;;;;;;5018934;28;20075;-56
2021/08/03 07:37:20;;;;;;;3.00;2.60;;;25.50;60.80;;;;;;5017683;28;20038;-57
2021/08/03 07:39:46;;;;;;;2.83;2.53;;;25.50;60.80;;;;;;5022106;28;20035;-58
2021/08/03 07:42:11;;;;;;;2.90;2.60;;;25.50;61.00;;;;;;5023189;28;20033;-60
2021/08/03 07:44:37;;;;;;;2.80;2.60;;;25.50;61.00;;;;;;5019527;28;20037;-59
2021/08/03 07:47:04;;;;;;;3.95;2.70;;;25.50;61.20;;;;;;5026093;28;20032;-59
2021/08/03 07:49:30;;;;;;;2.85;2.58;;;25.50;61.20;;;;;;5022494;28;20061;-59
2021/08/03 07:51:57;;;;;;;3.13;2.85;;;25.50;61.40;;;;;;5021278;28;20065;-59
2021/08/03 07:54:23;;;;;;;2.72;2.53;;;25.60;61.60;;;;;;5014830;28;20124;-59
2021/08/03 07:56:48;;;;;;;3.55;2.60;;;25.60;61.50;;;;;;5015508;28;20275;-57
2021/08/03 07:59:14;;;;;;;2.60;2.40;;;25.60;61.40;;;;;;5018758;28;20034;-59
2021/08/03 08:01:40;;;;;;;3.15;2.58;;;25.60;61.50;;;;;;5019423;28;20079;-59
2021/08/03 08:04:05;;;;;;;3.17;2.75;;;25.60;61.30;;;;;;5014584;28;20362;-58
2021/08/03 08:06:31;;;;;;;2.72;2.53;;;25.60;61.10;;;;;;5017637;28;20405;-58
2021/08/03 08:08:57;;;;;;;3.92;2.65;;;25.60;61.20;;;;;;5019666;28;20729;-59
2021/08/03 08:11:23;;;;;;;2.72;2.53;;;25.60;60.90;;;;;;5020727;28;20037;-59
2021/08/03 08:13:49;;;;;;;3.17;2.40;;;25.60;61.00;;;;;;5018419;28;20038;-58
2021/08/03 08:16:15;;;;;;;2.90;2.60;;;25.70;61.10;;;;;;5014357;28;20116;-58
2021/08/03 08:18:40;;;;;;;3.35;2.88;;;25.70;61.00;;;;;;5015710;28;20128;-60
2021/08/03 08:21:06;;;;;;;3.15;2.85;;;25.70;61.10;;;;;;5018028;28;20696;-58
2021/08/03 08:23:34;;;;;;;3.28;2.70;;;25.60;61.00;;;;;;5023125;28;20048;-58
2021/08/03 08:26:00;;;;;;;3.33;2.83;;;25.70;61.10;;;;;;5018751;28;20034;-59
2021/08/03 08:28:26;;;;;;;2.90;2.60;;;25.70;60.60;;;;;;5019383;28;20033;-57
2021/08/03 08:30:52;;;;;;;2.83;2.63;;;25.60;60.60;;;;;;5025513;28;20061;-56
2021/08/03 08:33:17;;;;;;;2.58;2.38;;;25.60;60.50;;;;;;5020178;28;20030;-60
2021/08/03 08:35:43;;;;;;;3.13;2.83;;;25.70;60.40;;;;;;5018158;28;20100;-56
2021/08/03 08:38:09;;;;;;;2.65;2.45;;;25.70;60.10;;;;;;5013056;28;20037;-58
2021/08/03 08:40:35;;;;;;;3.15;2.83;;;25.70;59.90;;;;;;5014316;28;20053;-59
2021/08/03 08:43:01;;;;;;;4.13;2.58;;;25.60;59.70;;;;;;5018791;28;20043;-58
2021/08/03 08:45:27;;;;;;;3.90;2.88;;;25.60;59.80;;;;;;5025046;28;20033;-60
2021/08/03 08:47:53;;;;;;;3.10;2.80;;;25.60;59.80;;;;;;5025963;28;20036;-58
2021/08/03 08:50:21;;;;;;;2.75;2.55;;;25.60;59.80;;;;;;5024302;28;20438;-60
2021/08/03 08:52:53;;;;;;;3.20;2.83;;;25.60;59.70;;;;;;5022845;28;20048;-60
2021/08/03 08:55:20;;;;;;;2.80;2.60;;;25.60;59.50;;;;;;5014516;28;20091;-60
2021/08/03 08:57:51;;;;;;;3.05;2.75;;;25.60;59.60;;;;;;5015862;28;20148;-58
2021/08/03 09:00:19;;;;;;;3.38;2.90;;;25.50;59.20;;;;;;5015695;28;20082;-60
2021/08/03 09:02:47;;;;;;;3.88;2.72;;;25.50;59.30;;;;;;5011173;28;20030;-57
2021/08/03 09:05:14;;;;;;;2.67;2.47;;;25.50;59.80;;;;;;5012370;28;20030;-57
2021/08/03 09:07:50;;;;;;;3.00;2.70;;;25.50;59.80;;;;;;5019219;28;20032;-56
2021/08/03 09:10:38;;;;;;;3.20;2.80;;;25.50;59.70;;;;;;5022307;28;20029;-58
2021/08/03 09:13:18;;;;;;;2.60;2.40;;;25.40;59.90;;;;;;5015847;28;20048;-58
2021/08/03 09:15:45;;;;;;;2.83;2.50;;;25.50;59.90;;;;;;5019413;28;20116;-61
2021/08/03 09:18:29;;;;;;;3.00;2.70;;;25.50;60.00;;;;;;5013436;28;20056;-59
2021/08/03 09:20:55;;;;;;;3.15;2.65;;;25.50;60.20;;;;;;5020029;28;20037;-58
2021/08/03 09:23:50;;;;;;;2.95;2.65;;;25.60;60.20;;;;;;5017537;28;20041;-60
2021/08/03 09:26:18;;;;;;;2.70;2.50;;;25.60;59.90;;;;;;5019951;28;20033;-58
2021/08/03 09:29:04;;;;;;;2.58;2.38;;;25.60;59.50;;;;;;5018193;28;20118;-59
2021/08/03 09:31:34;;;;;;;2.40;2.20;;;25.60;59.30;;;;;;5019930;28;20030;-57
2021/08/03 09:34:08;;;;;;;2.63;2.40;;;25.60;59.10;;;;;;5023219;28;20681;-59
2021/08/03 09:36:47;;;;;;;2.72;2.45;;;25.60;59.40;;;;;;5015504;28;20037;-57
2021/08/03 09:39:32;;;;;;;3.40;2.40;;;25.60;59.30;;;;;;5020309;28;20037;-58
2021/08/03 09:41:58;;;;;;;3.42;2.55;;;25.60;59.40;;;;;;5026305;28;20040;-59
2021/08/03 09:44:24;;;;;;;4.47;2.33;;;25.60;59.10;;;;;;5025564;28;20054;-58
2021/08/03 09:46:57;;;;;;;3.22;2.20;;;25.60;58.90;;;;;;5027409;28;20393;-57
2021/08/03 09:49:41;;;;;;;2.50;2.10;;;25.60;58.90;;;;;;5027480;28;20044;-58
2021/08/03 09:52:12;;;;;;;3.22;1.80;;;25.60;58.40;;;;;;5027866;28;20037;-63
2021/08/03 09:54:39;;;;;;;2.38;2.20;;;25.60;58.50;;;;;;5023473;28;20034;-59
2021/08/03 09:57:18;;;;;;;2.50;2.30;;;25.60;58.70;;;;;;5027883;28;20033;-58
2021/08/03 09:59:44;;;;;;;2.35;2.17;;;25.70;58.70;;;;;;5019081;28;20087;-58
2021/08/03 10:02:17;;;;;;;2.45;2.25;;;25.70;58.70;;;;;;5022284;28;20029;-57
2021/08/03 10:04:46;;;;;;;2.50;2.30;;;25.70;58.50;;;;;;5026185;28;20037;-57
2021/08/03 10:07:13;;;;;;;2.70;2.42;;;25.70;58.60;;;;;;5029033;28;20021;-57
2021/08/03 10:09:39;;;;;;;2.50;2.30;;;25.70;58.50;;;;;;5023760;28;20037;-58
2021/08/03 10:12:05;;;;;;;2.40;2.20;;;25.70;58.40;;;;;;5026150;28;20037;-58
2021/08/03 10:14:31;;;;;;;2.47;2.30;;;25.70;58.60;;;;;;5031792;28;20044;-56
2021/08/03 10:16:57;;;;;;;2.58;2.38;;;25.70;59.10;;;;;;5027649;28;20026;-57
2021/08/03 10:19:35;;;;;;;3.22;2.60;;;25.70;58.10;;;;;;5030904;28;20029;-58
2021/08/03 10:22:05;;;;;;;2.85;2.35;;;25.70;58.30;;;;;;5028904;28;20033;-58
2021/08/03 10:24:34;;;;;;;2.40;2.20;;;25.80;58.30;;;;;;5031224;28;20044;-58
2021/08/03 10:27:10;;;;;;;2.55;2.35;;;25.80;58.30;;;;;;5028781;28;20104;-57
2021/08/03 10:29:47;;;;;;;2.30;2.10;;;25.80;58.20;;;;;;5014894;28;20037;-58
2021/08/03 10:32:35;;;;;;;2.65;2.45;;;25.80;58.20;;;;;;5027240;28;20037;-58
2021/08/03 10:35:01;;;;;;;2.58;2.22;;;25.80;58.20;;;;;;5028385;28;20040;-58
2021/08/03 10:37:58;;;;;;;3.38;2.40;;;25.80;58.20;;;;;;5027349;28;20052;-58
2021/08/03 10:40:46;;;;;;;2.33;2.13;;;25.80;57.60;;;;;;5023666;28;20144;-57
2021/08/03 10:43:34;;;;;;;2.70;2.25;;;25.80;57.40;;;;;;5024837;28;20025;-59
2021/08/03 10:46:09;;;;;;;2.50;2.30;;;25.80;57.30;;;;;;5028941;28;20496;-58
2021/08/03 10:48:38;;;;;;;2.28;2.00;;;25.80;57.60;;;;;;5030250;28;20064;-58
2021/08/03 10:51:15;;;;;;;2.20;2.00;;;25.80;57.20;;;;;;5031170;28;20064;-58
2021/08/03 10:54:04;;;;;;;2.30;2.10;;;25.80;57.40;;;;;;5027382;28;20082;-55
2021/08/03 10:56:52;;;;;;;2.00;1.90;;;25.80;57.50;;;;;;5027530;28;20045;-58
2021/08/03 10:59:30;;;;;;;2.50;2.30;;;25.80;57.00;;;;;;5026508;28;20065;-57
2021/08/03 11:01:58;;;;;;;2.60;2.40;;;25.80;56.90;;;;;;5022725;28;20057;-58
2021/08/03 11:04:42;;;;;;;2.80;2.15;;;25.80;56.70;;;;;;5024616;28;20029;-58
2021/08/03 11:07:27;;;;;;;2.45;2.25;;;25.90;56.60;;;;;;5032463;28;20028;-59
2021/08/03 11:10:13;;;;;;;2.92;2.17;;;25.90;57.10;;;;;;5025549;28;20047;-59
2021/08/03 11:12:47;;;;;;;2.50;2.30;;;25.90;57.10;;;;;;5028009;28;20045;-58
2021/08/03 11:15:21;;;;;;;2.70;2.50;;;25.90;57.20;;;;;;5026175;28;20115;-60
2021/08/03 11:17:55;;;;;;;2.63;2.42;;;25.90;57.20;;;;;;5027344;28;20048;-59
2021/08/03 11:20:33;;;;;;;2.72;2.50;;;25.90;57.30;;;;;;5031389;28;20051;-59
2021/08/03 11:23:00;;;;;;;2.97;2.70;;;26.00;57.60;;;;;;5027072;28;20045;-57
2021/08/03 11:25:27;;;;;;;3.15;2.40;;;26.00;57.50;;;;;;5026873;28;20470;-58
2021/08/03 11:27:54;;;;;;;3.20;2.30;;;26.00;57.50;;;;;;5018451;28;20017;-58
2021/08/03 11:30:19;;;;;;;3.05;2.45;;;26.00;57.60;;;;;;5019401;28;20417;-59
2021/08/03 11:32:48;;;;;;;3.00;2.60;;;26.00;57.60;;;;;;5028910;28;20129;-59
2021/08/03 11:35:30;;;;;;;4.65;2.63;;;26.00;57.70;;;;;;5030517;28;20025;-60
2021/08/03 11:38:01;;;;;;;2.50;2.30;;;26.00;57.70;;;;;;5023745;28;20030;-60
2021/08/03 11:40:27;;;;;;;;;;;25.90;57.50;;;;;;5029414;28;20136;-57
2021/08/03 11:42:56;;;;;;;2.95;2.30;;;25.90;57.80;;;;;;5016528;28;20016;-57
2021/08/03 11:45:22;;;;;;;2.83;2.38;;;25.90;57.70;;;;;;5023516;28;20523;-59
2021/08/03 11:47:57;;;;;;;2.70;2.50;;;25.90;57.30;;;;;;5025013;28;20021;-58
2021/08/03 11:50:35;;;;;;;2.70;2.50;;;25.90;57.30;;;;;;5021643;28;20034;-59
2021/08/03 11:53:12;;;;;;;3.20;2.60;;;25.90;57.30;;;;;;5022870;28;20032;-59
2021/08/03 11:55:40;;;;;;;2.63;2.42;;;25.90;57.80;;;;;;5019552;28;20205;-59
2021/08/03 11:58:07;;;;;;;2.45;2.25;;;25.90;57.40;;;;;;5021077;28;20036;-60
2021/08/03 12:00:34;;;;;;;2.50;2.30;;;25.90;57.70;;;;;;5023841;28;20037;-60
2021/08/03 12:03:01;;;;;;;2.80;2.60;;;25.90;57.40;;;;;;5025847;28;20021;-59
2021/08/03 12:05:34;;;;;;;2.83;2.60;;;25.90;57.30;;;;;;5022863;28;20021;-59
2021/08/03 12:08:07;;;;;;;2.72;2.53;;;25.90;57.40;;;;;;5017988;28;20090;-58
2021/08/03 12:10:36;;;;;;;3.20;2.90;;;25.80;57.50;;;;;;5021546;28;20041;-59
2021/08/03 12:13:03;;;;;;;2.45;2.25;;;25.80;57.60;;;;;;5027302;28;20037;-58
2021/08/03 12:15:29;;;;;;;3.58;2.40;;;25.80;57.60;;;;;;5029455;28;20305;-56
2021/08/03 12:18:10;;;;;;;2.67;2.40;;;25.80;57.30;;;;;;5025567;28;20401;-59
2021/08/03 12:20:55;;;;;;;3.03;2.72;;;25.80;57.10;;;;;;5028795;28;20064;-57
2021/08/03 12:23:33;;;;;;;2.72;2.53;;;25.80;57.10;;;;;;5026031;28;20045;-57
2021/08/03 12:26:03;;;;;;;2.60;2.40;;;25.90;57.10;;;;;;5021178;28;20029;-56
2021/08/03 12:28:39;;;;;;;2.88;2.60;;;25.80;57.00;;;;;;5017787;28;20034;-55
2021/08/03 12:31:18;;;;;;;4.15;2.67;;;25.80;57.20;;;;;;5025446;28;20040;-56
2021/08/03 12:33:45;;;;;;;2.95;2.65;;;25.80;57.10;;;;;;5027294;28;20033;-58
2021/08/03 12:36:15;;;;;;;3.75;2.50;;;25.90;57.30;;;;;;5027205;28;20467;-58
2021/08/03 12:38:43;;;;;;;3.20;2.70;;;25.90;57.20;;;;;;5022999;28;20038;-58
2021/08/03 12:41:16;;;;;;;3.05;2.75;;;25.90;57.30;;;;;;5015828;28;20037;-58
2021/08/03 12:43:42;;;;;;;3.28;2.50;;;25.90;57.30;;;;;;5015172;28;20037;-58
2021/08/03 12:46:08;;;;;;;2.95;2.67;;;25.80;57.30;;;;;;5016724;28;20355;-57
2021/08/03 12:48:34;;;;;;;2.97;2.38;;;25.90;57.40;;;;;;5020348;28;20120;-58
2021/08/03 12:51:03;;;;;;;2.92;2.53;;;25.90;57.40;;;;;;5020970;28;20187;-59
2021/08/03 12:53:32;;;;;;;3.08;2.85;;;25.90;57.50;;;;;;5019491;28;20041;-58
2021/08/03 12:56:44;;;;;;;2.60;2.40;;;25.90;57.70;;;;;;5009825;28;20034;-57
2021/08/03 12:59:33;;;;;;;3.72;2.58;;;25.90;57.80;;;;;;5013777;28;20041;-57
2021/08/03 13:02:00;;;;;;;3.53;2.45;;;25.90;57.50;;;;;;5013495;28;20109;-58